LEVD Airport Information

Runway Information
Runway 05 Length 9843 ft width 197 ft
Elevation 2768 ft Threshold 0 ft Heading 45
Runway 23 Length 9843 ft Width 197 ft
Elevation 2775 ft Threshold 0 ft Heading 225
Runway 15 Length 2976 ft width 197 ft
Elevation 2770 ft Threshold 0 ft Heading 144
Runway 33 Length 2976 ft Width 197 ft
Elevation 2771 ft Threshold 0 ft Heading 324
Airport Frequencies
Type TWR Name TWR Frequency 122.2 MHZ
Airport Navaids
Type TACAN Name Valladolid Frequency 108200 KHZ
Type NDB Name Valladolid Frequency 342 KHZ
Airport Weather Information & NOTAM
ADDS - METARS form results

(1229 UTC 22 January 2022)
Data provider http://aviationweather.gov/metar/data/
 
METAR text: LEVD 221200Z 08009KT 060V120 CAVOK 04/M04 Q1028
Conditions at: LEVD (VALLADOLID(MIL/C, ES) observed 1200 UTC 22 January 2022
Temperature: 4.0°C (39°F)
Dewpoint: -4.0°C (25°F) [RH = 56%]
Pressure (altimeter): 30.35 inches Hg (1028.0 mb)
Winds: from the E (80 degrees) at 10 MPH (9 knots; 4.6 m/s)
Visibility: 6 or more miles (10+ km)
Ceiling: ceiling and visibility are OK
Clouds: unknown
Weather: no significant weather observed at this time

METAR text: LEVD 221130Z 08008KT CAVOK 03/M04 Q1029
Conditions at: LEVD (VALLADOLID(MIL/C, ES) observed 1130 UTC 22 January 2022
Temperature: 3.0°C (37°F)
Dewpoint: -4.0°C (25°F) [RH = 60%]
Pressure (altimeter): 30.38 inches Hg (1029.0 mb)
Winds: from the E (80 degrees) at 9 MPH (8 knots; 4.1 m/s)
Visibility: 6 or more miles (10+ km)
Ceiling: ceiling and visibility are OK
Clouds: unknown
Weather: no significant weather observed at this time

Forecast for: LEVD (VALLADOLID(MIL/C, ES)
Text: TAF LEVD 220800Z 2209/2309 07006KT CAVOK TX09/2214Z TNM02/2308Z
Forecast period: 0900 UTC 22 January 2022 to 0900 UTC 23 January 2022
Forecast type: FROM: standard forecast or significant change
Winds: from the ENE (70 degrees) at 7 MPH (6 knots; 3.1 m/s)
Visibility: 6 or more miles (10+ km)
Ceiling: unknown
Clouds: missing
Weather: no significant weather forecast for this period